createdAt,value
2023-01-07T00:01:16.798Z,-21.78
2023-01-07T00:03:44.524Z,-21.71
2023-01-07T00:06:20.429Z,-21.67
2023-01-07T00:08:48.478Z,-21.64
2023-01-07T00:11:21.055Z,-21.63
2023-01-07T00:13:52.920Z,-21.65
2023-01-07T00:16:22.641Z,-21.70
2023-01-07T00:18:51.351Z,-21.87
2023-01-07T00:21:20.047Z,-21.88
2023-01-07T00:23:47.530Z,-21.97
2023-01-07T00:26:16.717Z,-21.91
2023-01-07T00:28:46.022Z,-21.94
2023-01-07T00:31:19.642Z,-21.95
2023-01-07T00:33:59.423Z,-21.95
2023-01-07T00:36:31.368Z,-21.94
2023-01-07T00:39:12.632Z,-21.94
2023-01-07T00:41:39.838Z,-21.87
2023-01-07T00:44:08.090Z,-21.83
2023-01-07T00:46:35.063Z,-21.83
2023-01-07T00:49:02.162Z,-21.80
2023-01-07T00:51:29.033Z,-21.80
2023-01-07T00:53:55.887Z,-21.72
2023-01-07T00:56:22.692Z,-21.73
2023-01-07T00:58:49.433Z,-21.84
2023-01-07T01:01:16.270Z,-21.96
2023-01-07T01:03:43.151Z,-21.99
2023-01-07T01:06:14.523Z,-21.97
2023-01-07T01:08:46.157Z,-22.05
2023-01-07T01:11:15.800Z,-22.01
2023-01-07T01:13:43.951Z,-21.96
2023-01-07T01:16:13.947Z,-21.89
2023-01-07T01:18:41.298Z,-21.84
2023-01-07T01:21:10.731Z,-21.80
2023-01-07T01:23:38.002Z,-21.81
2023-01-07T01:26:10.382Z,-21.81
2023-01-07T01:28:37.126Z,-21.78
2023-01-07T01:31:04.647Z,-21.78
2023-01-07T01:33:31.402Z,-21.73
2023-01-07T01:35:58.197Z,-21.68
2023-01-07T01:38:24.921Z,-21.71
2023-01-07T01:40:52.647Z,-21.69
2023-01-07T01:43:31.877Z,-21.66
2023-01-07T01:46:12.030Z,-21.56
2023-01-07T01:48:45.167Z,-21.56
2023-01-07T01:51:14.957Z,-21.57
2023-01-07T01:53:41.873Z,-21.56
2023-01-07T01:56:16.534Z,-21.56
2023-01-07T01:58:52.808Z,-21.55
2023-01-07T02:01:19.800Z,-21.49
2023-01-07T02:03:48.439Z,-21.45
2023-01-07T02:06:24.189Z,-21.44
2023-01-07T02:08:51.027Z,-21.51
2023-01-07T02:11:37.956Z,-21.52
2023-01-07T02:14:34.739Z,-21.53
2023-01-07T02:17:16.818Z,-21.50
2023-01-07T02:20:02.002Z,-21.63
2023-01-07T02:22:40.347Z,-21.68
2023-01-07T02:25:29.809Z,-21.62
2023-01-07T02:28:05.505Z,-21.73
2023-01-07T02:31:06.149Z,-21.74
2023-01-07T02:34:06.481Z,-21.73
2023-01-07T02:36:37.859Z,-21.95
2023-01-07T02:39:27.510Z,-21.98
2023-01-07T02:41:56.835Z,-22.13
2023-01-07T02:44:42.152Z,-22.06
2023-01-07T02:47:29.638Z,-22.05
2023-01-07T02:49:56.401Z,-22.00
2023-01-07T02:52:26.347Z,-21.98
2023-01-07T02:55:19.235Z,-21.99
2023-01-07T02:58:07.283Z,-21.98
2023-01-07T03:00:58.228Z,-22.03
2023-01-07T03:03:42.367Z,-22.05
2023-01-07T03:06:27.524Z,-22.14
2023-01-07T03:09:10.808Z,-22.21
2023-01-07T03:12:11.249Z,-22.22
2023-01-07T03:14:48.040Z,-22.23
2023-01-07T03:17:20.757Z,-22.18
2023-01-07T03:19:55.032Z,-22.21
2023-01-07T03:22:25.251Z,-22.30
2023-01-07T03:24:54.619Z,-22.33
2023-01-07T03:27:24.033Z,-22.41
2023-01-07T03:29:53.079Z,-22.40
2023-01-07T03:32:31.610Z,-22.45
2023-01-07T03:34:58.599Z,-22.38
2023-01-07T03:37:27.861Z,-22.50
2023-01-07T03:39:55.271Z,-22.48
2023-01-07T03:42:40.225Z,-22.45
2023-01-07T03:45:14.651Z,-22.40
2023-01-07T03:47:45.685Z,-22.39
2023-01-07T03:50:12.575Z,-22.48
2023-01-07T03:52:39.444Z,-22.52
2023-01-07T03:55:06.633Z,-22.54
2023-01-07T03:57:33.745Z,-22.50
2023-01-07T04:00:00.664Z,-22.53
2023-01-07T04:02:28.041Z,-22.42
2023-01-07T04:04:55.031Z,-22.43
2023-01-07T04:07:21.784Z,-22.43
2023-01-07T04:09:50.384Z,-22.44
2023-01-07T04:12:17.974Z,-22.35
2023-01-07T04:14:45.207Z,-22.38
2023-01-07T04:17:12.269Z,-22.41
2023-01-07T04:19:39.947Z,-22.38
2023-01-07T04:22:09.395Z,-22.35
2023-01-07T04:24:36.198Z,-22.36
2023-01-07T04:27:03.362Z,-22.31
2023-01-07T04:29:30.629Z,-22.25
2023-01-07T04:31:57.930Z,-22.24
2023-01-07T04:34:25.332Z,-22.29
2023-01-07T04:36:52.176Z,-22.32
2023-01-07T04:39:18.946Z,-22.27
2023-01-07T04:41:45.752Z,-22.19
2023-01-07T04:44:12.552Z,-22.29
2023-01-07T04:46:39.331Z,-22.28
2023-01-07T04:49:06.079Z,-22.30
2023-01-07T04:51:32.843Z,-22.29
2023-01-07T04:53:59.669Z,-22.31
2023-01-07T04:56:26.448Z,-22.24
2023-01-07T04:58:53.311Z,-22.37
2023-01-07T05:01:20.196Z,-22.40
2023-01-07T05:03:46.974Z,-22.41
2023-01-07T05:06:14.031Z,-22.44
2023-01-07T05:08:40.769Z,-22.47
2023-01-07T05:11:07.495Z,-22.42
2023-01-07T05:13:35.464Z,-22.37
2023-01-07T05:16:03.139Z,-22.37
2023-01-07T05:18:30.320Z,-22.44
2023-01-07T05:20:57.112Z,-22.47
2023-01-07T05:23:24.019Z,-22.50
2023-01-07T05:25:50.818Z,-22.48
2023-01-07T05:28:17.598Z,-22.46
2023-01-07T05:30:44.507Z,-22.48
2023-01-07T05:33:11.230Z,-22.44
2023-01-07T05:35:38.035Z,-22.49
2023-01-07T05:38:05.110Z,-22.45
2023-01-07T05:40:31.823Z,-22.53
2023-01-07T05:42:58.653Z,-22.49
2023-01-07T05:45:25.392Z,-22.46
2023-01-07T05:47:52.132Z,-22.42
2023-01-07T05:50:18.867Z,-22.43
2023-01-07T05:52:45.780Z,-22.35
2023-01-07T05:55:12.560Z,-22.37
2023-01-07T05:57:39.637Z,-22.45
2023-01-07T06:00:07.083Z,-22.52
2023-01-07T06:02:33.906Z,-22.42
2023-01-07T06:05:00.693Z,-22.44
2023-01-07T06:07:27.789Z,-22.50
2023-01-07T06:09:54.559Z,-22.46
2023-01-07T06:12:21.330Z,-22.49
2023-01-07T06:14:48.041Z,-22.48
2023-01-07T06:17:14.937Z,-22.50
2023-01-07T06:19:41.635Z,-22.53
2023-01-07T06:22:08.446Z,-22.54
2023-01-07T06:24:35.291Z,-22.52
2023-01-07T06:27:02.027Z,-22.58
2023-01-07T06:29:28.770Z,-22.62
2023-01-07T06:31:55.487Z,-22.55
2023-01-07T06:34:22.271Z,-22.61
2023-01-07T06:36:49.022Z,-22.61
2023-01-07T06:39:15.786Z,-22.54
2023-01-07T06:41:42.499Z,-22.49
2023-01-07T06:44:09.202Z,-22.57
2023-01-07T06:46:36.087Z,-22.60
2023-01-07T06:49:03.482Z,-22.59
2023-01-07T06:51:30.300Z,-22.61
2023-01-07T06:53:57.120Z,-22.61
2023-01-07T06:56:23.925Z,-22.65
2023-01-07T06:58:50.675Z,-22.57
2023-01-07T07:01:17.598Z,-22.54
2023-01-07T07:03:44.445Z,-22.49
2023-01-07T07:06:11.372Z,-22.48
2023-01-07T07:08:38.266Z,-22.46
2023-01-07T07:11:05.201Z,-22.47
2023-01-07T07:13:34.209Z,-22.38
2023-01-07T07:16:01.105Z,-22.31
2023-01-07T07:18:27.973Z,-22.28
2023-01-07T07:20:54.699Z,-22.27
2023-01-07T07:23:21.493Z,-22.25
2023-01-07T07:25:48.388Z,-22.20
2023-01-07T07:28:15.146Z,-22.18
2023-01-07T07:30:45.532Z,-22.17
2023-01-07T07:33:15.131Z,-22.16
2023-01-07T07:35:42.316Z,-22.07
2023-01-07T07:38:09.189Z,-22.09
2023-01-07T07:40:36.307Z,-22.09
2023-01-07T07:43:11.593Z,-22.05
2023-01-07T07:45:40.610Z,-21.94
2023-01-07T07:48:09.428Z,-21.91
2023-01-07T07:50:36.416Z,-21.84
2023-01-07T07:53:03.378Z,-21.83
2023-01-07T07:55:30.140Z,-21.86
2023-01-07T07:57:58.412Z,-21.88
2023-01-07T08:00:25.482Z,-21.90
2023-01-07T08:02:52.524Z,-21.90
2023-01-07T08:05:19.296Z,-21.81
2023-01-07T08:07:46.013Z,-21.72
2023-01-07T08:10:12.714Z,-21.63
2023-01-07T08:12:40.025Z,-21.58
2023-01-07T08:15:08.272Z,-21.65
2023-01-07T08:17:36.420Z,-21.65
2023-01-07T08:20:07.523Z,-21.55
2023-01-07T08:22:35.058Z,-21.54
2023-01-07T08:25:02.177Z,-21.51
2023-01-07T08:27:30.387Z,-21.47
2023-01-07T08:29:57.364Z,-21.48
2023-01-07T08:32:24.517Z,-21.57
2023-01-07T08:34:51.451Z,-21.48
2023-01-07T08:37:19.543Z,-21.40
2023-01-07T08:39:46.485Z,-21.27
2023-01-07T08:42:13.201Z,-21.33
2023-01-07T08:44:40.009Z,-21.37
2023-01-07T08:47:06.831Z,-21.40
2023-01-07T08:49:33.606Z,-21.39
2023-01-07T08:52:00.372Z,-21.30
2023-01-07T08:54:27.294Z,-21.37
2023-01-07T08:56:54.079Z,-21.36
2023-01-07T08:59:20.817Z,-21.40
2023-01-07T09:01:47.692Z,-21.47
2023-01-07T09:04:14.514Z,-21.45
2023-01-07T09:06:41.224Z,-21.45
2023-01-07T09:09:08.000Z,-21.38
2023-01-07T09:11:34.940Z,-21.31
2023-01-07T09:14:01.726Z,-21.24
2023-01-07T09:16:28.598Z,-21.31
2023-01-07T09:18:55.343Z,-21.27
2023-01-07T09:21:22.171Z,-21.28
2023-01-07T09:23:48.992Z,-21.18
2023-01-07T09:26:15.695Z,-21.21
2023-01-07T09:28:42.449Z,-21.17
2023-01-07T09:31:09.225Z,-21.06
2023-01-07T09:33:36.072Z,-20.99
2023-01-07T09:36:02.899Z,-20.84
2023-01-07T09:38:30.033Z,-20.71
2023-01-07T09:40:57.146Z,-20.63
2023-01-07T09:44:00.890Z,-20.61
2023-01-07T09:46:23.543Z,-20.50
2023-01-07T09:48:58.022Z,-20.42
2023-01-07T09:51:38.475Z,-20.44
2023-01-07T09:54:15.929Z,-20.53
2023-01-07T09:56:42.966Z,-20.59
2023-01-07T09:59:11.691Z,-20.52
2023-01-07T10:01:51.190Z,-20.47
2023-01-07T10:04:28.586Z,-20.55
2023-01-07T10:07:04.102Z,-20.54
2023-01-07T10:09:49.357Z,-20.48
2023-01-07T10:12:25.792Z,-20.40
2023-01-07T10:14:55.412Z,-20.38
2023-01-07T10:18:00.951Z,-20.42
2023-01-07T10:20:43.956Z,-20.40
2023-01-07T10:23:14.789Z,-20.31
2023-01-07T10:25:47.881Z,-20.20
2023-01-07T10:28:23.057Z,-20.18
2023-01-07T10:30:52.237Z,-20.12
2023-01-07T10:33:29.767Z,-20.15
2023-01-07T10:36:02.347Z,-20.07
2023-01-07T10:38:33.987Z,-20.04
2023-01-07T10:41:08.705Z,-20.01
2023-01-07T10:43:38.073Z,-20.05
2023-01-07T10:46:33.966Z,-19.95
2023-01-07T10:49:13.750Z,-19.69
2023-01-07T10:51:58.003Z,-19.37
2023-01-07T10:54:52.263Z,-18.99
2023-01-07T10:57:22.872Z,-18.44
2023-01-07T10:59:52.488Z,-18.09
2023-01-07T11:02:22.557Z,-17.66
2023-01-07T11:04:49.814Z,-17.20
2023-01-07T11:07:30.982Z,-16.75
2023-01-07T11:10:02.302Z,-16.52
2023-01-07T11:13:03.127Z,-16.22
2023-01-07T11:15:37.659Z,-15.82
2023-01-07T11:18:19.350Z,-15.69
2023-01-07T11:20:50.894Z,-15.54
2023-01-07T11:23:31.557Z,-15.25
2023-01-07T11:26:35.905Z,-14.97
2023-01-07T11:29:17.048Z,-14.76
2023-01-07T11:31:46.566Z,-14.65
2023-01-07T11:34:37.959Z,-14.44
2023-01-07T11:37:05.915Z,-14.30
2023-01-07T11:39:35.704Z,-14.08
2023-01-07T11:42:33.002Z,-14.02
2023-01-07T11:45:14.908Z,-14.02
2023-01-07T11:47:48.627Z,-14.18
2023-01-07T11:50:43.341Z,-14.29
2023-01-07T11:53:15.854Z,-14.38
2023-01-07T11:56:21.861Z,-14.31
2023-01-07T11:58:51.151Z,-14.43
2023-01-07T12:01:24.262Z,-14.61
2023-01-07T12:03:56.798Z,-14.67
2023-01-07T12:06:30.402Z,-15.10
2023-01-07T12:09:22.802Z,-15.41
2023-01-07T12:11:50.817Z,-15.71
2023-01-07T12:14:20.368Z,-15.92
2023-01-07T12:16:48.089Z,-16.48
2023-01-07T12:19:17.762Z,-16.63
2023-01-07T12:22:12.513Z,-16.72
2023-01-07T12:24:48.196Z,-16.90
2023-01-07T12:27:25.974Z,-16.99
2023-01-07T12:30:01.408Z,-17.07
2023-01-07T12:32:53.302Z,-17.17
2023-01-07T12:35:29.483Z,-17.33
2023-01-07T12:38:02.980Z,-17.48
2023-01-07T12:40:49.865Z,-17.54
2023-01-07T12:43:35.391Z,-17.71
2023-01-07T12:46:05.584Z,-17.85
2023-01-07T12:49:07.989Z,-17.98
2023-01-07T12:51:43.868Z,-18.04
2023-01-07T12:54:33.472Z,-18.12
2023-01-07T12:57:07.161Z,-18.18
2023-01-07T12:59:48.088Z,-18.19
2023-01-07T13:02:45.100Z,-18.25
2023-01-07T13:05:19.319Z,-18.39
2023-01-07T13:07:57.175Z,-18.41
2023-01-07T13:10:35.599Z,-18.43
2023-01-07T13:13:14.077Z,-18.47
2023-01-07T13:15:41.981Z,-18.53
2023-01-07T13:18:15.956Z,-18.49
2023-01-07T13:21:00.943Z,-18.55
2023-01-07T13:23:52.928Z,-18.53
2023-01-07T13:26:44.249Z,-18.68
2023-01-07T13:29:19.986Z,-18.66
2023-01-07T13:31:57.767Z,-18.77
2023-01-07T13:34:40.180Z,-18.93
2023-01-07T13:37:15.682Z,-19.01
2023-01-07T13:39:42.391Z,-19.06
2023-01-07T13:42:09.107Z,-19.13
2023-01-07T13:44:59.874Z,-19.07
2023-01-07T13:47:49.299Z,-19.12
2023-01-07T13:50:25.673Z,-19.07
2023-01-07T13:53:01.410Z,-19.06
2023-01-07T13:55:35.910Z,-19.11
2023-01-07T13:58:03.014Z,-19.13
2023-01-07T14:00:39.773Z,-19.17
2023-01-07T14:03:32.333Z,-19.14
2023-01-07T14:06:20.576Z,-19.25
2023-01-07T14:09:07.868Z,-19.25
2023-01-07T14:11:36.098Z,-19.28
2023-01-07T14:14:21.960Z,-19.24
2023-01-07T14:17:42.991Z,-19.25
2023-01-07T14:20:41.947Z,-19.24
2023-01-07T14:23:36.923Z,-19.19
2023-01-07T14:26:03.725Z,-19.18
2023-01-07T14:28:49.058Z,-19.14
2023-01-07T14:31:25.353Z,-19.12
2023-01-07T14:34:05.045Z,-19.12
2023-01-07T14:36:59.408Z,-19.17
2023-01-07T14:39:40.940Z,-19.25
2023-01-07T14:42:19.729Z,-19.26
2023-01-07T14:44:50.952Z,-19.33
2023-01-07T14:47:52.272Z,-19.35
2023-01-07T14:50:54.656Z,-19.36
2023-01-07T14:53:46.037Z,-19.33
2023-01-07T14:56:44.414Z,-19.31
2023-01-07T14:59:38.478Z,-19.33
2023-01-07T15:02:34.708Z,-19.41
2023-01-07T15:05:35.660Z,-19.47
2023-01-07T15:08:25.791Z,-19.53
2023-01-07T15:11:13.603Z,-19.57
2023-01-07T15:14:02.724Z,-19.65
2023-01-07T15:16:34.342Z,-19.64
2023-01-07T15:19:01.419Z,-19.66
2023-01-07T15:21:38.160Z,-19.63
2023-01-07T15:24:38.698Z,-19.63
2023-01-07T15:27:14.960Z,-19.63
2023-01-07T15:30:09.353Z,-19.57
2023-01-07T15:33:17.621Z,-19.54
2023-01-07T15:35:44.998Z,-19.62
2023-01-07T15:38:50.244Z,-19.59
2023-01-07T15:41:35.923Z,-19.62
2023-01-07T15:44:06.341Z,-19.63
2023-01-07T15:46:34.009Z,-19.60
2023-01-07T15:49:23.874Z,-19.58
2023-01-07T15:51:57.018Z,-19.63
2023-01-07T15:54:38.206Z,-19.70
2023-01-07T15:57:07.208Z,-19.76
2023-01-07T15:59:37.865Z,-19.77
2023-01-07T16:02:25.541Z,-19.76
2023-01-07T16:04:56.068Z,-19.78
2023-01-07T16:07:51.096Z,-19.84
2023-01-07T16:10:26.169Z,-19.87
2023-01-07T16:12:58.504Z,-19.90
2023-01-07T16:15:32.784Z,-19.87
2023-01-07T16:18:15.723Z,-19.86
2023-01-07T16:21:06.293Z,-19.86
2023-01-07T16:23:35.942Z,-19.87
2023-01-07T16:26:27.485Z,-19.83
2023-01-07T16:28:58.358Z,-19.74
2023-01-07T16:31:28.002Z,-19.74
2023-01-07T16:33:59.069Z,-19.68
2023-01-07T16:36:30.207Z,-19.57
2023-01-07T16:39:00.782Z,-19.56
2023-01-07T16:41:29.914Z,-19.53
2023-01-07T16:43:58.830Z,-19.47
2023-01-07T16:46:42.876Z,-19.45
2023-01-07T16:49:17.618Z,-19.47
2023-01-07T16:51:54.225Z,-19.47
2023-01-07T16:54:24.622Z,-19.46
2023-01-07T16:57:02.140Z,-19.38
2023-01-07T16:59:34.990Z,-19.47
2023-01-07T17:02:48.990Z,-19.38
2023-01-07T17:05:33.770Z,-19.38
2023-01-07T17:08:07.028Z,-19.46
2023-01-07T17:10:40.801Z,-19.57
2023-01-07T17:13:27.600Z,-19.62
2023-01-07T17:16:16.406Z,-19.52
2023-01-07T17:18:43.332Z,-19.50
2023-01-07T17:21:32.562Z,-19.45
2023-01-07T17:23:59.519Z,-19.50
2023-01-07T17:26:28.176Z,-19.48
2023-01-07T17:29:09.691Z,-19.43
2023-01-07T17:31:40.721Z,-19.42
2023-01-07T17:34:10.530Z,-19.28
2023-01-07T17:36:37.344Z,-19.39
2023-01-07T17:39:05.023Z,-19.39
2023-01-07T17:41:53.496Z,-19.32
2023-01-07T17:44:20.362Z,-19.39
2023-01-07T17:46:47.200Z,-19.48
2023-01-07T17:49:14.259Z,-19.44
2023-01-07T17:51:44.357Z,-19.43
2023-01-07T17:54:30.398Z,-19.44
2023-01-07T17:56:57.236Z,-19.45
2023-01-07T17:59:24.519Z,-19.39
2023-01-07T18:01:56.694Z,-19.43
2023-01-07T18:04:23.929Z,-19.41
2023-01-07T18:06:50.882Z,-19.37
2023-01-07T18:09:17.837Z,-19.36
2023-01-07T18:12:04.587Z,-19.40
2023-01-07T18:14:32.673Z,-19.36
2023-01-07T18:16:59.674Z,-19.38
2023-01-07T18:19:26.515Z,-19.34
2023-01-07T18:21:53.400Z,-19.28
2023-01-07T18:24:21.643Z,-19.26
2023-01-07T18:26:48.967Z,-19.22
2023-01-07T18:29:15.982Z,-19.14
2023-01-07T18:31:44.579Z,-19.08
2023-01-07T18:34:13.779Z,-19.00
2023-01-07T18:36:41.331Z,-19.00
2023-01-07T18:39:10.038Z,-18.97
2023-01-07T18:41:39.432Z,-19.01
2023-01-07T18:44:07.282Z,-18.99
2023-01-07T18:46:34.298Z,-19.00
2023-01-07T18:49:01.142Z,-19.01
2023-01-07T18:51:28.379Z,-18.94
2023-01-07T18:53:55.519Z,-18.95
2023-01-07T18:56:22.794Z,-18.93
2023-01-07T18:58:53.754Z,-18.89
2023-01-07T19:01:21.193Z,-18.81
2023-01-07T19:03:48.932Z,-18.87
2023-01-07T19:06:16.076Z,-18.89
2023-01-07T19:08:43.444Z,-18.93
2023-01-07T19:11:15.579Z,-18.86
2023-01-07T19:13:42.886Z,-18.88
2023-01-07T19:16:12.855Z,-18.87
2023-01-07T19:18:41.237Z,-18.89
2023-01-07T19:21:11.713Z,-18.88
2023-01-07T19:23:39.417Z,-18.95
2023-01-07T19:26:08.454Z,-19.01
2023-01-07T19:28:36.121Z,-19.04
2023-01-07T19:31:10.784Z,-19.06
2023-01-07T19:33:37.890Z,-19.05
2023-01-07T19:36:08.198Z,-19.01
2023-01-07T19:38:42.933Z,-19.00
2023-01-07T19:41:12.046Z,-18.97
2023-01-07T19:43:39.197Z,-18.97
2023-01-07T19:46:07.450Z,-19.00
2023-01-07T19:48:34.443Z,-19.00
2023-01-07T19:51:03.255Z,-19.02
2023-01-07T19:53:31.525Z,-19.00
2023-01-07T19:56:09.919Z,-19.03
2023-01-07T19:58:37.573Z,-18.97
2023-01-07T20:01:07.257Z,-18.94
2023-01-07T20:03:35.536Z,-18.87
2023-01-07T20:06:10.583Z,-18.86
2023-01-07T20:08:38.250Z,-18.82
2023-01-07T20:11:05.960Z,-18.69
2023-01-07T20:13:34.638Z,-18.69
2023-01-07T20:16:09.864Z,-18.65
2023-01-07T20:18:44.130Z,-18.76
2023-01-07T20:21:13.548Z,-18.80
2023-01-07T20:23:41.662Z,-18.80
2023-01-07T20:26:14.555Z,-18.79
2023-01-07T20:28:41.775Z,-18.85
2023-01-07T20:31:11.550Z,-18.82
2023-01-07T20:33:38.410Z,-18.79
2023-01-07T20:36:08.274Z,-18.77
2023-01-07T20:38:36.044Z,-18.76
2023-01-07T20:41:06.126Z,-18.68
2023-01-07T20:43:34.289Z,-18.65
2023-01-07T20:46:05.847Z,-18.57
2023-01-07T20:48:33.793Z,-18.43
2023-01-07T20:51:06.565Z,-18.35
2023-01-07T20:53:34.326Z,-18.28
2023-01-07T20:56:02.179Z,-18.21
2023-01-07T20:58:34.135Z,-18.15
2023-01-07T21:01:12.777Z,-18.13
2023-01-07T21:03:40.609Z,-18.15
2023-01-07T21:06:10.036Z,-18.13
2023-01-07T21:08:38.433Z,-18.07
2023-01-07T21:11:13.524Z,-17.98
2023-01-07T21:13:40.968Z,-18.00
2023-01-07T21:16:07.868Z,-17.99
2023-01-07T21:18:35.055Z,-17.97
2023-01-07T21:21:08.756Z,-17.97
2023-01-07T21:23:35.585Z,-17.98
2023-01-07T21:26:02.330Z,-17.99
2023-01-07T21:28:29.033Z,-17.97
2023-01-07T21:30:55.857Z,-17.98
2023-01-07T21:33:22.638Z,-17.97
2023-01-07T21:35:49.400Z,-17.95
2023-01-07T21:38:16.242Z,-17.90
2023-01-07T21:40:43.166Z,-17.83
2023-01-07T21:43:09.970Z,-17.83
2023-01-07T21:45:37.015Z,-17.81
2023-01-07T21:48:04.067Z,-17.76
2023-01-07T21:50:30.779Z,-17.71
2023-01-07T21:52:57.696Z,-17.64
2023-01-07T21:55:24.592Z,-17.61
2023-01-07T21:57:51.316Z,-17.62
2023-01-07T22:00:18.153Z,-17.64
2023-01-07T22:02:45.066Z,-17.67
2023-01-07T22:05:12.117Z,-17.71
2023-01-07T22:07:39.621Z,-17.72
2023-01-07T22:10:06.728Z,-17.70
2023-01-07T22:12:33.470Z,-17.69
2023-01-07T22:15:00.824Z,-17.66
2023-01-07T22:17:27.705Z,-17.70
2023-01-07T22:19:54.531Z,-17.69
2023-01-07T22:22:21.307Z,-17.68
2023-01-07T22:24:48.165Z,-17.67
2023-01-07T22:27:14.905Z,-17.60
2023-01-07T22:29:42.097Z,-17.63
2023-01-07T22:32:09.010Z,-17.64
2023-01-07T22:34:36.000Z,-17.66
2023-01-07T22:37:10.547Z,-17.71
2023-01-07T22:39:39.887Z,-17.76
2023-01-07T22:42:19.994Z,-17.73
2023-01-07T22:44:56.239Z,-17.72
2023-01-07T22:47:27.735Z,-17.69
2023-01-07T22:49:58.322Z,-17.69
2023-01-07T22:52:25.451Z,-17.67
2023-01-07T22:54:53.169Z,-17.64
2023-01-07T22:57:23.270Z,-17.62
2023-01-07T22:59:50.079Z,-17.62
2023-01-07T23:02:16.789Z,-17.64
2023-01-07T23:04:43.535Z,-17.64
2023-01-07T23:07:10.253Z,-17.63
2023-01-07T23:09:37.042Z,-17.57
2023-01-07T23:12:04.065Z,-17.55
2023-01-07T23:14:30.975Z,-17.48
2023-01-07T23:16:59.501Z,-17.47
2023-01-07T23:19:26.348Z,-17.44
2023-01-07T23:21:55.103Z,-17.48
2023-01-07T23:24:23.287Z,-17.48
2023-01-07T23:26:51.981Z,-17.50
2023-01-07T23:29:19.409Z,-17.50
2023-01-07T23:31:46.591Z,-17.49
2023-01-07T23:34:14.419Z,-17.48
2023-01-07T23:36:41.258Z,-17.51
2023-01-07T23:39:08.011Z,-17.51
2023-01-07T23:41:34.917Z,-17.50
2023-01-07T23:44:01.844Z,-17.50
2023-01-07T23:46:28.621Z,-17.46
2023-01-07T23:48:55.330Z,-17.46
2023-01-07T23:51:22.400Z,-17.48
2023-01-07T23:53:49.826Z,-17.48
2023-01-07T23:56:20.952Z,-17.46
2023-01-07T23:58:48.238Z,-17.39
